Sligo Airport - TAF
(Terminal Area Forecast)


Issued at 15:36 UTC on Tue. 27-Feb-24


--- METARS(SA) ---
METAR EISG(SLIGO) 271530Z 27011KT 8000 NSC 09/07 Q1016 =


--- TAFS() ---
TAF EISG(SLIGO) 271400Z 2715/2724 27015KT 9999 SCT020 BKN030 BECMG
2718/2720 22007KT =


--- SIGMETS(WS) ---
IE - No VALID SIGMETS/Warnings FOR THIS AREA

--- SIGMETS Volcanic(WV) ---
IE - No VALID SIGMETS/Warnings FOR THIS AREA

--- SIGMETS(WS) ---
UK - No VALID SIGMETS/Warnings FOR THIS AREA

Sligo Airport - METARs

Latest METARs for Sligo and Donegal Airports - updated every 30 mins